Aviation Digital Data Service (ADDS)

Output produced by METARs form (0148 UTC 01 February 2023)
found at http://www.aviationweather.gov/metar/data/
 
TAF LZSL 311930Z 3121/0106 24004KT 9999 BKN033 
     TEMPO 3121/0101 3000 -RASN SCT013 BKN020 
     BECMG 0104/0106 33016G30KT